Pays
Station

 

Conditions  météo  pour  Kurmitola, Dia  -  Bangladesh    Bangladesh

  
27 °C
    
 
 

METAR pour Kurmitola, Dia :

VGZR 220250Z 18010KT 3500 DZ BKN009 OVC100 27/25 Q0998 TEMPO RA

 

Voici le bulletin pour Kurmitola, Dia - Bangladesh.
 
Le bulletin a été fait il y a 740 heures et 50 minutes, à 02:50 UTC .
Le vent soufflait à la vitesse de 5.1 mètres par seconde de Sud (180°).
 
La température était de 27 °C, avec un point de rosée à 25 °C.
La température ressentie était de 31 °C.
 
La pression atmosphérique était de 998 hPa.
L'humidité relative était de 88.8%.
 
Il y avait 5 à 7/8ème de nébulosité à une hauteur de 274 mètres. Le ciel était nuageux à partir d'une hauteur de 3048 mètres
 
La visibilité globale était de 3500 mètres.
 
Actuellement moderé(e) bruine.

 
 
 

Pays :   A   B   C   D   E   F   G   H   I   J   K   L   M   N   O   P   Q   R   S   T   U   V   W   Y   Z

 

Partenaires :  Info Météo avec Met'info
Météo Marine avec MeteoMarine.net
Infos Site  |  Infos Légales  |  Crédits  |  Confidentialité
Contactez-nous  |  Ajouter aux favoris
© 2013-2019 METAR - Tous droits réservés